sensor_id;sensor_type;location;lat;lon;timestamp;P1;durP1;ratioP1;P2;durP2;ratioP2
56427;SDS011;42331;53.578;9.760;2023-01-05T09:12:08;16.77;;;2.22;;
56427;SDS011;42331;53.578;9.760;2023-01-05T09:17:14;16.10;;;2.78;;
56427;SDS011;42331;53.578;9.760;2023-01-05T09:19:45;16.42;;;2.00;;
56427;SDS011;42331;53.578;9.760;2023-01-05T09:22:16;13.65;;;2.03;;
56427;SDS011;42331;53.578;9.760;2023-01-05T09:24:46;17.50;;;1.75;;
56427;SDS011;42331;53.578;9.760;2023-01-05T09:27:17;16.15;;;1.92;;
56427;SDS011;42331;53.578;9.760;2023-01-05T09:29:48;12.73;;;1.85;;
56427;SDS011;42331;53.578;9.760;2023-01-05T09:32:19;10.60;;;1.50;;
56427;SDS011;42331;53.578;9.760;2023-01-05T09:34:49;21.42;;;2.05;;
56427;SDS011;42331;53.578;9.760;2023-01-05T09:37:20;18.02;;;2.13;;
56427;SDS011;42331;53.578;9.760;2023-01-05T09:39:51;21.65;;;2.17;;
56427;SDS011;42331;53.578;9.760;2023-01-05T09:42:22;20.27;;;2.17;;
56427;SDS011;42331;53.578;9.760;2023-01-05T09:44:58;14.45;;;2.08;;
56427;SDS011;42331;53.578;9.760;2023-01-05T09:47:34;19.42;;;2.58;;
56427;SDS011;42331;53.578;9.760;2023-01-05T09:50:17;17.23;;;2.30;;
56427;SDS011;42331;53.578;9.760;2023-01-05T09:52:51;21.83;;;2.97;;
56427;SDS011;42331;53.578;9.760;2023-01-05T09:55:26;22.20;;;2.35;;
56427;SDS011;42331;53.578;9.760;2023-01-05T09:58:00;16.42;;;2.30;;
56427;SDS011;42331;53.578;9.760;2023-01-05T10:01:12;24.00;;;2.25;;
56427;SDS011;42331;53.578;9.760;2023-01-05T10:03:59;23.05;;;2.47;;
56427;SDS011;42331;53.578;9.760;2023-01-05T10:06:33;15.38;;;1.90;;
56427;SDS011;42331;53.578;9.760;2023-01-05T10:09:07;22.45;;;4.88;;
56427;SDS011;42331;53.578;9.760;2023-01-05T10:14:45;19.38;;;2.75;;
56427;SDS011;42331;53.578;9.760;2023-01-05T10:17:19;20.10;;;2.63;;
56427;SDS011;42331;53.578;9.760;2023-01-05T10:19:51;24.23;;;2.38;;
56427;SDS011;42331;53.578;9.760;2023-01-05T10:25:11;29.85;;;2.42;;
56427;SDS011;42331;53.578;9.760;2023-01-05T10:33:20;24.08;;;2.45;;
56427;SDS011;42331;53.578;9.760;2023-01-05T10:36:22;41.78;;;10.90;;
56427;SDS011;42331;53.578;9.760;2023-01-05T10:42:01;23.60;;;2.50;;
56427;SDS011;42331;53.578;9.760;2023-01-05T10:44:53;15.50;;;2.17;;
56427;SDS011;42331;53.578;9.760;2023-01-05T10:47:29;21.15;;;2.47;;
56427;SDS011;42331;53.578;9.760;2023-01-05T10:50:01;17.23;;;2.00;;
56427;SDS011;42331;53.578;9.760;2023-01-05T10:52:46;24.17;;;2.63;;
56427;SDS011;42331;53.578;9.760;2023-01-05T10:55:17;19.67;;;2.80;;
56427;SDS011;42331;53.578;9.760;2023-01-05T10:57:49;19.92;;;2.92;;
56427;SDS011;42331;53.578;9.760;2023-01-05T11:00:20;22.17;;;2.58;;
56427;SDS011;42331;53.578;9.760;2023-01-05T11:03:02;18.13;;;2.70;;
56427;SDS011;42331;53.578;9.760;2023-01-05T11:05:34;20.77;;;2.22;;
56427;SDS011;42331;53.578;9.760;2023-01-05T11:08:17;18.88;;;2.63;;
56427;SDS011;42331;53.578;9.760;2023-01-05T11:10:52;18.98;;;2.45;;
56427;SDS011;42331;53.578;9.760;2023-01-05T11:13:32;17.35;;;2.22;;
56427;SDS011;42331;53.578;9.760;2023-01-05T11:16:07;20.13;;;2.10;;
56427;SDS011;42331;53.578;9.760;2023-01-05T11:21:22;16.52;;;2.30;;
56427;SDS011;42331;53.578;9.760;2023-01-05T11:23:56;15.50;;;2.20;;
56427;SDS011;42331;53.578;9.760;2023-01-05T11:26:39;15.68;;;1.80;;
56427;SDS011;42331;53.578;9.760;2023-01-05T11:29:18;11.35;;;1.83;;
56427;SDS011;42331;53.578;9.760;2023-01-05T11:31:51;13.90;;;1.50;;
56427;SDS011;42331;53.578;9.760;2023-01-05T11:39:47;18.88;;;2.10;;
56427;SDS011;42331;53.578;9.760;2023-01-05T11:44:56;19.70;;;2.53;;
56427;SDS011;42331;53.578;9.760;2023-01-05T11:47:39;18.92;;;2.63;;
56427;SDS011;42331;53.578;9.760;2023-01-05T11:52:54;25.95;;;4.07;;
56427;SDS011;42331;53.578;9.760;2023-01-05T12:00:50;22.33;;;2.85;;
56427;SDS011;42331;53.578;9.760;2023-01-05T12:03:54;22.20;;;2.60;;
56427;SDS011;42331;53.578;9.760;2023-01-05T12:09:23;11.73;;;2.15;;
56427;SDS011;42331;53.578;9.760;2023-01-05T12:17:32;17.83;;;2.03;;
56427;SDS011;42331;53.578;9.760;2023-01-05T12:25:57;18.08;;;2.10;;
56427;SDS011;42331;53.578;9.760;2023-01-05T12:28:54;14.77;;;2.67;;
56427;SDS011;42331;53.578;9.760;2023-01-05T12:40:03;20.42;;;2.38;;
56427;SDS011;42331;53.578;9.760;2023-01-05T12:43:10;16.48;;;1.77;;
56427;SDS011;42331;53.578;9.760;2023-01-05T12:45:56;12.85;;;1.60;;
56427;SDS011;42331;53.578;9.760;2023-01-05T12:48:45;14.38;;;1.73;;
56427;SDS011;42331;53.578;9.760;2023-01-05T12:51:23;12.73;;;1.50;;
56427;SDS011;42331;53.578;9.760;2023-01-05T12:57:08;18.33;;;1.90;;
56427;SDS011;42331;53.578;9.760;2023-01-05T13:02:35;13.05;;;1.50;;
56427;SDS011;42331;53.578;9.760;2023-01-05T13:11:13;9.88;;;1.25;;
56427;SDS011;42331;53.578;9.760;2023-01-05T13:13:50;15.07;;;1.60;;
56427;SDS011;42331;53.578;9.760;2023-01-05T13:16:46;14.20;;;1.63;;
56427;SDS011;42331;53.578;9.760;2023-01-05T13:19:33;12.80;;;1.50;;
56427;SDS011;42331;53.578;9.760;2023-01-05T13:22:17;19.77;;;2.45;;
56427;SDS011;42331;53.578;9.760;2023-01-05T13:24:57;17.67;;;1.65;;
56427;SDS011;42331;53.578;9.760;2023-01-05T13:27:33;12.02;;;1.30;;
56427;SDS011;42331;53.578;9.760;2023-01-05T13:30:04;13.73;;;1.73;;
56427;SDS011;42331;53.578;9.760;2023-01-05T13:35:48;20.13;;;2.00;;
56427;SDS011;42331;53.578;9.760;2023-01-05T13:38:54;11.18;;;1.70;;
56427;SDS011;42331;53.578;9.760;2023-01-05T13:42:11;7.50;;;1.40;;
56427;SDS011;42331;53.578;9.760;2023-01-05T13:56:01;17.00;;;1.30;;
56427;SDS011;42331;53.578;9.760;2023-01-05T13:58:51;13.13;;;1.60;;
56427;SDS011;42331;53.578;9.760;2023-01-05T14:01:36;12.95;;;1.70;;
56427;SDS011;42331;53.578;9.760;2023-01-05T14:04:31;14.63;;;1.65;;
56427;SDS011;42331;53.578;9.760;2023-01-05T14:07:03;13.73;;;1.45;;
56427;SDS011;42331;53.578;9.760;2023-01-05T14:09:55;16.00;;;1.70;;
56427;SDS011;42331;53.578;9.760;2023-01-05T14:12:44;11.27;;;1.48;;
56427;SDS011;42331;53.578;9.760;2023-01-05T14:18:47;16.30;;;2.10;;
56427;SDS011;42331;53.578;9.760;2023-01-05T14:27:06;12.82;;;1.98;;
56427;SDS011;42331;53.578;9.760;2023-01-05T14:32:25;13.55;;;2.03;;
56427;SDS011;42331;53.578;9.760;2023-01-05T14:37:59;13.27;;;2.22;;
56427;SDS011;42331;53.578;9.760;2023-01-05T14:40:44;12.23;;;1.63;;
56427;SDS011;42331;53.578;9.760;2023-01-05T14:43:26;11.60;;;1.95;;
56427;SDS011;42331;53.578;9.760;2023-01-05T14:49:03;10.32;;;1.77;;
56427;SDS011;42331;53.578;9.760;2023-01-05T14:51:36;13.75;;;2.17;;
56427;SDS011;42331;53.578;9.760;2023-01-05T14:56:39;14.18;;;1.50;;
56427;SDS011;42331;53.578;9.760;2023-01-05T14:59:30;18.65;;;2.08;;
56427;SDS011;42331;53.578;9.760;2023-01-05T15:02:03;10.82;;;1.63;;
56427;SDS011;42331;53.578;9.760;2023-01-05T15:04:57;12.93;;;1.88;;
56427;SDS011;42331;53.578;9.760;2023-01-05T15:08:14;14.82;;;2.05;;
56427;SDS011;42331;53.578;9.760;2023-01-05T15:10:56;13.43;;;2.45;;
56427;SDS011;42331;53.578;9.760;2023-01-05T15:13:53;10.60;;;2.00;;
56427;SDS011;42331;53.578;9.760;2023-01-05T15:25:34;13.23;;;2.63;;
56427;SDS011;42331;53.578;9.760;2023-01-05T15:36:54;17.60;;;5.35;;
56427;SDS011;42331;53.578;9.760;2023-01-05T15:39:46;17.17;;;4.47;;
56427;SDS011;42331;53.578;9.760;2023-01-05T15:45:25;24.80;;;5.03;;
56427;SDS011;42331;53.578;9.760;2023-01-05T15:48:05;9.85;;;2.78;;
56427;SDS011;42331;53.578;9.760;2023-01-05T15:50:47;15.82;;;4.40;;
56427;SDS011;42331;53.578;9.760;2023-01-05T15:55:57;17.67;;;4.70;;
56427;SDS011;42331;53.578;9.760;2023-01-05T15:58:31;20.95;;;5.32;;
56427;SDS011;42331;53.578;9.760;2023-01-05T16:01:14;21.13;;;3.10;;
56427;SDS011;42331;53.578;9.760;2023-01-05T16:03:46;9.88;;;2.40;;
56427;SDS011;42331;53.578;9.760;2023-01-05T16:06:18;21.20;;;4.28;;
56427;SDS011;42331;53.578;9.760;2023-01-05T16:08:52;17.77;;;3.53;;
56427;SDS011;42331;53.578;9.760;2023-01-05T16:11:32;17.40;;;3.08;;
56427;SDS011;42331;53.578;9.760;2023-01-05T16:14:27;12.98;;;3.58;;
56427;SDS011;42331;53.578;9.760;2023-01-05T16:17:10;18.67;;;3.40;;
56427;SDS011;42331;53.578;9.760;2023-01-05T16:27:45;15.30;;;2.95;;
56427;SDS011;42331;53.578;9.760;2023-01-05T16:35:47;20.50;;;4.18;;
56427;SDS011;42331;53.578;9.760;2023-01-05T16:38:24;17.20;;;3.92;;
56427;SDS011;42331;53.578;9.760;2023-01-05T16:51:36;17.30;;;3.00;;
56427;SDS011;42331;53.578;9.760;2023-01-05T16:59:32;21.40;;;4.43;;
56427;SDS011;42331;53.578;9.760;2023-01-05T17:04:58;16.15;;;4.30;;
56427;SDS011;42331;53.578;9.760;2023-01-05T17:07:28;17.33;;;3.97;;
56427;SDS011;42331;53.578;9.760;2023-01-05T17:09:59;18.90;;;3.70;;
56427;SDS011;42331;53.578;9.760;2023-01-05T17:12:30;15.95;;;3.10;;
56427;SDS011;42331;53.578;9.760;2023-01-05T17:15:01;22.02;;;4.05;;
56427;SDS011;42331;53.578;9.760;2023-01-05T17:17:35;14.50;;;2.85;;
56427;SDS011;42331;53.578;9.760;2023-01-05T17:20:06;14.82;;;3.00;;
56427;SDS011;42331;53.578;9.760;2023-01-05T17:22:40;15.73;;;3.20;;
56427;SDS011;42331;53.578;9.760;2023-01-05T17:25:11;17.48;;;3.25;;
56427;SDS011;42331;53.578;9.760;2023-01-05T17:27:42;12.30;;;2.58;;
56427;SDS011;42331;53.578;9.760;2023-01-05T17:30:22;13.88;;;3.03;;
56427;SDS011;42331;53.578;9.760;2023-01-05T17:32:53;16.98;;;3.38;;
56427;SDS011;42331;53.578;9.760;2023-01-05T17:35:24;10.02;;;2.22;;
56427;SDS011;42331;53.578;9.760;2023-01-05T17:37:54;16.98;;;3.13;;
56427;SDS011;42331;53.578;9.760;2023-01-05T17:40:25;9.32;;;2.30;;
56427;SDS011;42331;53.578;9.760;2023-01-05T17:42:57;16.27;;;3.55;;
56427;SDS011;42331;53.578;9.760;2023-01-05T17:45:28;16.08;;;3.47;;
56427;SDS011;42331;53.578;9.760;2023-01-05T17:47:59;16.03;;;3.50;;
56427;SDS011;42331;53.578;9.760;2023-01-05T17:50:30;14.95;;;2.97;;
56427;SDS011;42331;53.578;9.760;2023-01-05T17:53:02;22.73;;;3.30;;
56427;SDS011;42331;53.578;9.760;2023-01-05T17:58:04;19.05;;;2.78;;
56427;SDS011;42331;53.578;9.760;2023-01-05T18:00:35;17.75;;;2.95;;
56427;SDS011;42331;53.578;9.760;2023-01-05T18:03:11;19.98;;;2.63;;
56427;SDS011;42331;53.578;9.760;2023-01-05T18:05:46;14.07;;;2.47;;
56427;SDS011;42331;53.578;9.760;2023-01-05T18:08:20;15.77;;;2.20;;
56427;SDS011;42331;53.578;9.760;2023-01-05T18:10:51;18.48;;;4.18;;
56427;SDS011;42331;53.578;9.760;2023-01-05T18:13:22;24.88;;;4.82;;
56427;SDS011;42331;53.578;9.760;2023-01-05T18:15:53;19.33;;;5.00;;
56427;SDS011;42331;53.578;9.760;2023-01-05T18:18:25;20.00;;;4.60;;
56427;SDS011;42331;53.578;9.760;2023-01-05T18:21:00;17.65;;;3.28;;
56427;SDS011;42331;53.578;9.760;2023-01-05T18:23:32;17.65;;;3.30;;
56427;SDS011;42331;53.578;9.760;2023-01-05T18:26:06;15.38;;;3.85;;
56427;SDS011;42331;53.578;9.760;2023-01-05T18:28:38;12.93;;;2.70;;
56427;SDS011;42331;53.578;9.760;2023-01-05T18:31:09;9.80;;;2.60;;
56427;SDS011;42331;53.578;9.760;2023-01-05T18:33:41;17.95;;;2.67;;
56427;SDS011;42331;53.578;9.760;2023-01-05T18:36:12;14.75;;;2.83;;
56427;SDS011;42331;53.578;9.760;2023-01-05T18:38:44;10.65;;;3.20;;
56427;SDS011;42331;53.578;9.760;2023-01-05T18:41:14;13.30;;;3.03;;
56427;SDS011;42331;53.578;9.760;2023-01-05T18:43:45;12.38;;;2.78;;
56427;SDS011;42331;53.578;9.760;2023-01-05T18:46:16;18.50;;;3.45;;
56427;SDS011;42331;53.578;9.760;2023-01-05T18:48:47;13.50;;;2.63;;
56427;SDS011;42331;53.578;9.760;2023-01-05T18:51:19;14.18;;;2.60;;
56427;SDS011;42331;53.578;9.760;2023-01-05T18:53:50;12.85;;;3.20;;
56427;SDS011;42331;53.578;9.760;2023-01-05T18:56:21;13.52;;;2.70;;
56427;SDS011;42331;53.578;9.760;2023-01-05T18:58:52;15.85;;;2.70;;
56427;SDS011;42331;53.578;9.760;2023-01-05T19:01:23;19.70;;;2.67;;
56427;SDS011;42331;53.578;9.760;2023-01-05T19:03:54;15.18;;;2.85;;
56427;SDS011;42331;53.578;9.760;2023-01-05T19:06:25;11.75;;;2.70;;
56427;SDS011;42331;53.578;9.760;2023-01-05T19:08:56;15.70;;;2.42;;
56427;SDS011;42331;53.578;9.760;2023-01-05T19:11:30;14.95;;;2.90;;
56427;SDS011;42331;53.578;9.760;2023-01-05T19:14:02;10.35;;;3.20;;
56427;SDS011;42331;53.578;9.760;2023-01-05T19:16:34;25.10;;;3.42;;
56427;SDS011;42331;53.578;9.760;2023-01-05T19:19:06;14.98;;;3.55;;
56427;SDS011;42331;53.578;9.760;2023-01-05T19:21:39;22.75;;;3.55;;
56427;SDS011;42331;53.578;9.760;2023-01-05T19:24:15;14.88;;;3.15;;
56427;SDS011;42331;53.578;9.760;2023-01-05T19:26:51;12.52;;;2.80;;
56427;SDS011;42331;53.578;9.760;2023-01-05T19:29:22;9.75;;;2.20;;
56427;SDS011;42331;53.578;9.760;2023-01-05T19:31:54;19.92;;;3.03;;
56427;SDS011;42331;53.578;9.760;2023-01-05T19:34:24;12.65;;;2.45;;
56427;SDS011;42331;53.578;9.760;2023-01-05T19:36:55;19.90;;;3.20;;
56427;SDS011;42331;53.578;9.760;2023-01-05T19:39:26;16.85;;;2.90;;
56427;SDS011;42331;53.578;9.760;2023-01-05T19:41:57;10.52;;;1.90;;
56427;SDS011;42331;53.578;9.760;2023-01-05T19:44:27;13.27;;;2.65;;
56427;SDS011;42331;53.578;9.760;2023-01-05T19:46:58;21.05;;;3.65;;
56427;SDS011;42331;53.578;9.760;2023-01-05T19:49:29;20.23;;;4.15;;
56427;SDS011;42331;53.578;9.760;2023-01-05T19:52:00;23.33;;;3.55;;
56427;SDS011;42331;53.578;9.760;2023-01-05T19:54:30;21.45;;;3.33;;
56427;SDS011;42331;53.578;9.760;2023-01-05T19:57:01;11.85;;;2.35;;
56427;SDS011;42331;53.578;9.760;2023-01-05T19:59:32;20.27;;;3.92;;
56427;SDS011;42331;53.578;9.760;2023-01-05T20:02:03;22.85;;;4.15;;
56427;SDS011;42331;53.578;9.760;2023-01-05T20:07:05;16.77;;;3.42;;
56427;SDS011;42331;53.578;9.760;2023-01-05T20:09:39;14.25;;;3.10;;
56427;SDS011;42331;53.578;9.760;2023-01-05T20:12:10;13.20;;;2.47;;
56427;SDS011;42331;53.578;9.760;2023-01-05T20:14:41;13.15;;;3.40;;
56427;SDS011;42331;53.578;9.760;2023-01-05T20:17:12;17.58;;;3.38;;
56427;SDS011;42331;53.578;9.760;2023-01-05T20:19:43;22.43;;;3.70;;
56427;SDS011;42331;53.578;9.760;2023-01-05T20:22:14;16.13;;;3.63;;
56427;SDS011;42331;53.578;9.760;2023-01-05T20:24:45;19.55;;;3.50;;
56427;SDS011;42331;53.578;9.760;2023-01-05T20:27:15;19.40;;;4.35;;
56427;SDS011;42331;53.578;9.760;2023-01-05T20:32:19;26.25;;;4.30;;
56427;SDS011;42331;53.578;9.760;2023-01-05T20:34:52;18.27;;;3.95;;
56427;SDS011;42331;53.578;9.760;2023-01-05T20:37:29;14.00;;;3.65;;
56427;SDS011;42331;53.578;9.760;2023-01-05T20:40:01;16.70;;;4.07;;
56427;SDS011;42331;53.578;9.760;2023-01-05T20:42:32;16.25;;;4.38;;
56427;SDS011;42331;53.578;9.760;2023-01-05T20:45:03;14.85;;;4.50;;
56427;SDS011;42331;53.578;9.760;2023-01-05T20:47:34;16.07;;;4.57;;
56427;SDS011;42331;53.578;9.760;2023-01-05T20:50:04;15.98;;;4.30;;
56427;SDS011;42331;53.578;9.760;2023-01-05T20:52:35;15.45;;;4.20;;
56427;SDS011;42331;53.578;9.760;2023-01-05T20:55:06;21.92;;;4.97;;
56427;SDS011;42331;53.578;9.760;2023-01-05T20:57:37;9.93;;;4.57;;
56427;SDS011;42331;53.578;9.760;2023-01-05T21:00:08;23.05;;;5.60;;
56427;SDS011;42331;53.578;9.760;2023-01-05T21:02:39;15.30;;;5.53;;
56427;SDS011;42331;53.578;9.760;2023-01-05T21:05:10;19.85;;;5.95;;
56427;SDS011;42331;53.578;9.760;2023-01-05T21:07:41;21.08;;;7.25;;
56427;SDS011;42331;53.578;9.760;2023-01-05T21:10:12;17.05;;;6.88;;
56427;SDS011;42331;53.578;9.760;2023-01-05T21:12:43;16.90;;;7.43;;
56427;SDS011;42331;53.578;9.760;2023-01-05T21:15:14;16.98;;;6.72;;
56427;SDS011;42331;53.578;9.760;2023-01-05T21:17:45;20.80;;;6.80;;
56427;SDS011;42331;53.578;9.760;2023-01-05T21:20:15;17.58;;;7.03;;
56427;SDS011;42331;53.578;9.760;2023-01-05T21:22:46;13.00;;;6.22;;
56427;SDS011;42331;53.578;9.760;2023-01-05T21:25:17;15.13;;;6.55;;
56427;SDS011;42331;53.578;9.760;2023-01-05T21:27:47;19.77;;;7.25;;
56427;SDS011;42331;53.578;9.760;2023-01-05T21:30:18;18.42;;;7.00;;
56427;SDS011;42331;53.578;9.760;2023-01-05T21:35:21;10.13;;;5.95;;
56427;SDS011;42331;53.578;9.760;2023-01-05T21:37:51;15.52;;;5.85;;
56427;SDS011;42331;53.578;9.760;2023-01-05T21:40:22;13.90;;;5.80;;
56427;SDS011;42331;53.578;9.760;2023-01-05T21:42:54;15.45;;;5.90;;
56427;SDS011;42331;53.578;9.760;2023-01-05T21:45:27;14.90;;;5.70;;
56427;SDS011;42331;53.578;9.760;2023-01-05T21:48:03;12.73;;;5.13;;
56427;SDS011;42331;53.578;9.760;2023-01-05T21:50:34;12.38;;;4.95;;
56427;SDS011;42331;53.578;9.760;2023-01-05T21:53:23;11.57;;;4.88;;
56427;SDS011;42331;53.578;9.760;2023-01-05T21:56:13;11.52;;;5.15;;
56427;SDS011;42331;53.578;9.760;2023-01-05T21:58:57;11.95;;;5.22;;
56427;SDS011;42331;53.578;9.760;2023-01-05T22:01:29;11.43;;;5.55;;
56427;SDS011;42331;53.578;9.760;2023-01-05T22:03:59;11.02;;;5.43;;
56427;SDS011;42331;53.578;9.760;2023-01-05T22:06:30;12.50;;;5.93;;
56427;SDS011;42331;53.578;9.760;2023-01-05T22:09:01;14.43;;;5.95;;
56427;SDS011;42331;53.578;9.760;2023-01-05T22:11:32;12.95;;;5.88;;
56427;SDS011;42331;53.578;9.760;2023-01-05T22:14:02;17.90;;;6.25;;
56427;SDS011;42331;53.578;9.760;2023-01-05T22:16:33;13.55;;;6.30;;
56427;SDS011;42331;53.578;9.760;2023-01-05T22:19:04;14.37;;;5.80;;
56427;SDS011;42331;53.578;9.760;2023-01-05T22:21:35;13.50;;;6.15;;
56427;SDS011;42331;53.578;9.760;2023-01-05T22:24:06;12.35;;;6.30;;
56427;SDS011;42331;53.578;9.760;2023-01-05T22:26:38;11.27;;;5.72;;
56427;SDS011;42331;53.578;9.760;2023-01-05T22:29:09;13.65;;;5.90;;
56427;SDS011;42331;53.578;9.760;2023-01-05T22:31:39;15.68;;;5.60;;
56427;SDS011;42331;53.578;9.760;2023-01-05T22:34:10;11.68;;;5.10;;
56427;SDS011;42331;53.578;9.760;2023-01-05T22:36:41;13.82;;;5.60;;
56427;SDS011;42331;53.578;9.760;2023-01-05T22:39:11;11.27;;;5.47;;
56427;SDS011;42331;53.578;9.760;2023-01-05T22:41:42;12.27;;;5.50;;
56427;SDS011;42331;53.578;9.760;2023-01-05T22:44:15;13.90;;;6.00;;
56427;SDS011;42331;53.578;9.760;2023-01-05T22:46:46;13.40;;;5.78;;
56427;SDS011;42331;53.578;9.760;2023-01-05T22:49:17;12.07;;;5.97;;
56427;SDS011;42331;53.578;9.760;2023-01-05T22:51:47;11.82;;;6.32;;
56427;SDS011;42331;53.578;9.760;2023-01-05T22:54:20;14.15;;;6.07;;
56427;SDS011;42331;53.578;9.760;2023-01-05T22:56:50;12.68;;;6.68;;
56427;SDS011;42331;53.578;9.760;2023-01-05T22:59:21;12.27;;;6.47;;
56427;SDS011;42331;53.578;9.760;2023-01-05T23:01:52;15.43;;;7.13;;
56427;SDS011;42331;53.578;9.760;2023-01-05T23:04:23;13.48;;;7.47;;
56427;SDS011;42331;53.578;9.760;2023-01-05T23:06:54;16.13;;;7.57;;
56427;SDS011;42331;53.578;9.760;2023-01-05T23:09:24;18.73;;;8.75;;
56427;SDS011;42331;53.578;9.760;2023-01-05T23:11:55;18.10;;;9.20;;
56427;SDS011;42331;53.578;9.760;2023-01-05T23:14:26;22.52;;;8.88;;
56427;SDS011;42331;53.578;9.760;2023-01-05T23:16:56;20.15;;;9.85;;
56427;SDS011;42331;53.578;9.760;2023-01-05T23:19:27;23.88;;;10.50;;
56427;SDS011;42331;53.578;9.760;2023-01-05T23:21:58;24.95;;;10.48;;
56427;SDS011;42331;53.578;9.760;2023-01-05T23:24:28;25.33;;;11.27;;
56427;SDS011;42331;53.578;9.760;2023-01-05T23:26:59;28.45;;;11.43;;
56427;SDS011;42331;53.578;9.760;2023-01-05T23:29:30;27.50;;;11.57;;
56427;SDS011;42331;53.578;9.760;2023-01-05T23:32:00;28.13;;;11.82;;
56427;SDS011;42331;53.578;9.760;2023-01-05T23:34:33;31.05;;;12.65;;
56427;SDS011;42331;53.578;9.760;2023-01-05T23:37:03;32.60;;;12.75;;
56427;SDS011;42331;53.578;9.760;2023-01-05T23:39:34;31.15;;;12.88;;
56427;SDS011;42331;53.578;9.760;2023-01-05T23:42:05;31.48;;;12.95;;
56427;SDS011;42331;53.578;9.760;2023-01-05T23:44:55;33.28;;;12.90;;
56427;SDS011;42331;53.578;9.760;2023-01-05T23:47:26;40.95;;;14.73;;
56427;SDS011;42331;53.578;9.760;2023-01-05T23:49:56;29.27;;;13.70;;
56427;SDS011;42331;53.578;9.760;2023-01-05T23:52:27;31.40;;;14.02;;
56427;SDS011;42331;53.578;9.760;2023-01-05T23:54:58;46.00;;;16.00;;
56427;SDS011;42331;53.578;9.760;2023-01-05T23:57:29;36.00;;;14.10;;
